createdAt,value
2023-04-30T00:02:18.576Z,10.20
2023-04-30T00:04:46.992Z,10.20
2023-04-30T00:07:15.456Z,10.20
2023-04-30T00:09:43.585Z,10.20
2023-04-30T00:12:11.648Z,10.20
2023-04-30T00:14:41.222Z,10.10
2023-04-30T00:17:09.400Z,10.10
2023-04-30T00:19:37.480Z,10.10
2023-04-30T00:22:06.265Z,10.00
2023-04-30T00:24:34.525Z,10.00
2023-04-30T00:27:02.583Z,9.90
2023-04-30T00:29:30.686Z,9.90
2023-04-30T00:32:00.242Z,9.90
2023-04-30T00:34:28.409Z,9.80
2023-04-30T00:36:56.560Z,9.80
2023-04-30T00:39:24.641Z,9.80
2023-04-30T00:41:52.809Z,10.00
2023-04-30T00:44:20.951Z,10.10
2023-04-30T00:46:49.106Z,10.10
2023-04-30T00:49:18.847Z,10.20
2023-04-30T00:51:47.462Z,10.30
2023-04-30T00:54:16.876Z,10.30
2023-04-30T00:56:46.639Z,10.30
2023-04-30T00:59:15.476Z,10.30
2023-04-30T01:01:44.518Z,10.30
2023-04-30T01:04:13.425Z,10.30
2023-04-30T01:06:43.486Z,10.30
2023-04-30T01:09:11.821Z,10.30
2023-04-30T01:11:53.735Z,10.40
2023-04-30T01:14:31.953Z,10.40
2023-04-30T01:17:09.847Z,10.30
2023-04-30T01:19:43.850Z,10.40
2023-04-30T01:22:31.287Z,10.40
2023-04-30T01:25:22.324Z,10.40
2023-04-30T01:28:06.880Z,10.40
2023-04-30T01:30:36.879Z,10.40
2023-04-30T01:33:05.367Z,10.40
2023-04-30T01:36:08.881Z,10.50
2023-04-30T01:39:08.557Z,10.40
2023-04-30T01:41:51.817Z,10.30
2023-04-30T01:44:49.865Z,10.30
2023-04-30T01:47:35.074Z,10.30
2023-04-30T01:50:21.639Z,10.30
2023-04-30T01:52:54.411Z,10.30
2023-04-30T01:55:29.514Z,10.40
2023-04-30T01:58:00.513Z,10.50
2023-04-30T02:00:31.610Z,10.60
2023-04-30T02:03:00.326Z,10.70
2023-04-30T02:05:28.831Z,10.70
2023-04-30T02:07:56.933Z,10.70
2023-04-30T02:10:27.056Z,10.70
2023-04-30T02:12:55.453Z,10.70
2023-04-30T02:15:23.723Z,10.60
2023-04-30T02:17:53.211Z,10.50
2023-04-30T02:20:21.616Z,10.50
2023-04-30T02:22:49.724Z,10.40
2023-04-30T02:25:18.082Z,10.40
2023-04-30T02:27:46.222Z,10.40
2023-04-30T02:30:14.317Z,10.30
2023-04-30T02:32:42.367Z,10.30
2023-04-30T02:35:12.043Z,10.30
2023-04-30T02:37:40.130Z,10.30
2023-04-30T02:40:10.554Z,10.20
2023-04-30T02:42:38.677Z,10.20
2023-04-30T02:45:08.174Z,10.20
2023-04-30T02:47:36.213Z,10.20
2023-04-30T02:50:04.480Z,10.10
2023-04-30T02:52:33.934Z,10.10
2023-04-30T02:55:01.991Z,10.00
2023-04-30T02:57:30.053Z,10.00
2023-04-30T02:59:58.144Z,10.10
2023-04-30T03:02:26.271Z,10.10
2023-04-30T03:04:54.375Z,10.30
2023-04-30T03:07:22.461Z,10.20
2023-04-30T03:09:52.415Z,10.20
2023-04-30T03:12:20.578Z,10.10
2023-04-30T03:14:48.648Z,10.10
2023-04-30T03:17:16.788Z,10.20
2023-04-30T03:19:44.838Z,10.30
2023-04-30T03:22:12.911Z,10.20
2023-04-30T03:24:41.174Z,10.20
2023-04-30T03:27:10.853Z,10.20
2023-04-30T03:29:38.916Z,10.20
2023-04-30T03:32:06.979Z,10.30
2023-04-30T03:34:35.064Z,10.20
2023-04-30T03:37:03.882Z,10.20
2023-04-30T03:39:31.906Z,10.20
2023-04-30T03:42:00.310Z,10.20
2023-04-30T03:44:29.731Z,10.00
2023-04-30T03:46:57.807Z,10.00
2023-04-30T03:49:25.836Z,10.00
2023-04-30T03:51:53.971Z,10.00
2023-04-30T03:54:22.083Z,9.90
2023-04-30T03:56:50.155Z,9.90
2023-04-30T03:59:19.275Z,9.90
2023-04-30T04:01:48.802Z,9.90
2023-04-30T04:04:17.037Z,9.80
2023-04-30T04:06:45.219Z,9.80
2023-04-30T04:09:13.427Z,9.80
2023-04-30T04:11:41.496Z,9.70
2023-04-30T04:14:09.635Z,9.70
2023-04-30T04:16:38.421Z,9.70
2023-04-30T04:19:07.921Z,9.70
2023-04-30T04:21:35.958Z,9.70
2023-04-30T04:24:08.329Z,9.70
2023-04-30T04:26:36.557Z,9.70
2023-04-30T04:29:05.100Z,9.80
2023-04-30T04:31:33.306Z,9.70
2023-04-30T04:34:04.542Z,9.70
2023-04-30T04:36:34.425Z,9.70
2023-04-30T04:39:03.020Z,9.70
2023-04-30T04:41:32.649Z,9.60
2023-04-30T04:44:01.749Z,9.70
2023-04-30T04:46:32.746Z,9.70
2023-04-30T04:49:01.112Z,9.70
2023-04-30T04:51:29.149Z,9.70
2023-04-30T04:53:58.554Z,9.70
2023-04-30T04:56:26.767Z,9.80
2023-04-30T04:58:54.892Z,9.80
2023-04-30T05:01:23.022Z,9.90
2023-04-30T05:03:51.225Z,9.90
2023-04-30T05:06:19.467Z,10.00
2023-04-30T05:08:47.606Z,10.10
2023-04-30T05:11:17.184Z,10.20
2023-04-30T05:13:45.287Z,10.30
2023-04-30T05:16:13.457Z,10.40
2023-04-30T05:18:41.532Z,10.40
2023-04-30T05:21:09.749Z,10.40
2023-04-30T05:23:37.790Z,10.40
2023-04-30T05:26:06.238Z,10.40
2023-04-30T05:28:35.975Z,10.40
2023-04-30T05:31:04.032Z,10.40
2023-04-30T05:33:32.069Z,10.50
2023-04-30T05:36:00.239Z,10.70
2023-04-30T05:38:28.370Z,10.90
2023-04-30T05:40:56.576Z,11.10
2023-04-30T05:43:24.691Z,11.20
2023-04-30T05:45:54.161Z,11.50
2023-04-30T05:48:22.237Z,11.70
2023-04-30T05:50:50.293Z,12.00
2023-04-30T05:53:18.324Z,12.20
2023-04-30T05:55:46.562Z,12.50
2023-04-30T05:58:15.078Z,13.10
2023-04-30T06:00:43.108Z,13.40
2023-04-30T06:03:12.528Z,14.00
2023-04-30T06:05:41.660Z,14.60
2023-04-30T06:08:09.814Z,15.10
2023-04-30T06:10:39.005Z,15.50
2023-04-30T06:13:08.000Z,15.70
2023-04-30T06:15:36.301Z,15.90
2023-04-30T06:18:04.525Z,15.90
2023-04-30T06:20:34.195Z,15.90
2023-04-30T06:23:03.886Z,16.00
2023-04-30T06:25:32.073Z,16.10
2023-04-30T06:28:00.122Z,16.40
2023-04-30T06:30:28.224Z,16.50
2023-04-30T06:32:56.443Z,16.60
2023-04-30T06:35:24.561Z,16.30
2023-04-30T06:37:53.994Z,16.50
2023-04-30T06:40:21.991Z,16.40
2023-04-30T06:42:50.033Z,16.50
2023-04-30T06:45:19.542Z,16.90
2023-04-30T06:47:47.901Z,16.90
2023-04-30T06:50:16.692Z,16.80
2023-04-30T06:52:44.787Z,16.70
2023-04-30T06:55:14.244Z,17.30
2023-04-30T06:57:42.396Z,17.90
2023-04-30T07:00:12.512Z,18.10
2023-04-30T07:02:40.605Z,18.60
2023-04-30T07:05:09.617Z,18.40
2023-04-30T07:07:37.940Z,18.40
2023-04-30T07:10:07.311Z,18.60
2023-04-30T07:12:36.816Z,19.10
2023-04-30T07:15:05.514Z,19.70
2023-04-30T07:17:33.624Z,19.80
2023-04-30T07:20:01.660Z,20.20
2023-04-30T07:22:29.647Z,20.30
2023-04-30T07:24:57.783Z,19.70
2023-04-30T07:27:25.817Z,19.40
2023-04-30T07:29:56.141Z,19.40
2023-04-30T07:32:27.375Z,17.90
2023-04-30T07:34:55.545Z,17.00
2023-04-30T07:37:23.558Z,16.80
2023-04-30T07:39:51.626Z,17.30
2023-04-30T07:42:19.680Z,17.60
2023-04-30T07:44:48.836Z,17.40
2023-04-30T07:47:18.457Z,18.00
2023-04-30T07:49:47.203Z,18.10
2023-04-30T07:52:15.415Z,17.30
2023-04-30T07:54:43.476Z,17.00
2023-04-30T07:57:12.889Z,16.90
2023-04-30T07:59:40.991Z,16.80
2023-04-30T08:02:10.157Z,16.60
2023-04-30T08:04:39.648Z,16.50
2023-04-30T08:07:08.149Z,16.50
2023-04-30T08:09:36.503Z,16.40
2023-04-30T08:12:05.007Z,16.50
2023-04-30T08:14:34.256Z,16.50
2023-04-30T08:17:03.174Z,16.40
2023-04-30T08:19:31.434Z,16.70
2023-04-30T08:22:01.381Z,16.80
2023-04-30T08:24:29.474Z,16.90
2023-04-30T08:26:57.764Z,16.90
2023-04-30T08:29:25.893Z,17.10
2023-04-30T08:31:53.958Z,16.90
2023-04-30T08:34:22.124Z,16.90
2023-04-30T08:36:50.156Z,16.80
2023-04-30T08:39:19.603Z,17.00
2023-04-30T08:41:56.230Z,17.30
2023-04-30T08:44:25.072Z,18.10
2023-04-30T08:46:56.883Z,18.70
2023-04-30T08:49:26.252Z,18.80
2023-04-30T08:51:54.821Z,18.90
2023-04-30T08:54:27.447Z,20.10
2023-04-30T08:56:56.433Z,21.20
2023-04-30T08:59:24.449Z,21.90
2023-04-30T09:01:53.787Z,22.70
2023-04-30T09:04:22.201Z,22.30
2023-04-30T09:06:53.457Z,22.20
2023-04-30T09:09:22.871Z,22.20
2023-04-30T09:11:51.084Z,21.90
2023-04-30T09:14:27.181Z,21.70
2023-04-30T09:16:55.356Z,21.40
2023-04-30T09:19:28.181Z,20.00
2023-04-30T09:21:57.135Z,20.20
2023-04-30T09:24:26.625Z,21.50
2023-04-30T09:26:55.326Z,21.30
2023-04-30T09:29:23.359Z,19.40
2023-04-30T09:31:52.080Z,18.40
2023-04-30T09:34:35.569Z,18.00
2023-04-30T09:37:04.146Z,18.00
2023-04-30T09:39:33.670Z,17.90
2023-04-30T09:42:11.982Z,18.00
2023-04-30T09:44:43.358Z,18.10
2023-04-30T09:47:16.416Z,18.00
2023-04-30T09:49:45.695Z,18.00
2023-04-30T09:52:13.807Z,18.40
2023-04-30T09:54:46.302Z,19.20
2023-04-30T09:57:16.873Z,19.20
2023-04-30T09:59:47.194Z,18.80
2023-04-30T10:02:18.267Z,19.00
2023-04-30T10:04:55.011Z,19.20
2023-04-30T10:07:26.195Z,19.50
2023-04-30T10:10:04.908Z,19.80
2023-04-30T10:12:43.971Z,19.30
2023-04-30T10:15:18.773Z,19.60
2023-04-30T10:17:55.511Z,19.50
2023-04-30T10:20:27.338Z,19.50
2023-04-30T10:22:56.114Z,20.60
2023-04-30T10:25:27.957Z,21.90
2023-04-30T10:27:56.187Z,22.60
2023-04-30T10:30:24.823Z,21.60
2023-04-30T10:33:07.516Z,20.80
2023-04-30T10:35:47.872Z,20.10
2023-04-30T10:38:24.965Z,19.80
2023-04-30T10:40:58.040Z,20.20
2023-04-30T10:43:26.838Z,20.10
2023-04-30T10:45:55.016Z,20.10
2023-04-30T10:48:26.749Z,19.90
2023-04-30T10:50:58.693Z,20.00
2023-04-30T10:53:28.905Z,20.50
2023-04-30T10:56:06.647Z,20.60
2023-04-30T10:58:37.579Z,20.50
2023-04-30T11:01:09.091Z,20.00
2023-04-30T11:03:38.185Z,20.30
2023-04-30T11:06:12.729Z,19.70
2023-04-30T11:08:44.873Z,19.60
2023-04-30T11:11:20.861Z,19.40
2023-04-30T11:14:00.332Z,19.40
2023-04-30T11:16:31.544Z,19.30
2023-04-30T11:19:10.782Z,19.60
2023-04-30T11:21:42.764Z,19.90
2023-04-30T11:24:10.892Z,20.60
2023-04-30T11:27:07.435Z,20.60
2023-04-30T11:29:36.344Z,21.00
2023-04-30T11:32:06.654Z,22.10
2023-04-30T11:34:36.669Z,23.30
2023-04-30T11:37:05.089Z,24.00
2023-04-30T11:39:37.733Z,25.30
2023-04-30T11:42:07.330Z,25.60
2023-04-30T11:44:35.865Z,26.10
2023-04-30T11:47:03.915Z,27.20
2023-04-30T11:49:33.523Z,26.00
2023-04-30T11:52:01.682Z,24.00
2023-04-30T11:54:33.394Z,23.90
2023-04-30T11:57:04.111Z,24.90
2023-04-30T11:59:41.237Z,23.90
2023-04-30T12:02:10.450Z,23.10
2023-04-30T12:04:40.360Z,23.00
2023-04-30T12:07:10.231Z,23.10
2023-04-30T12:09:54.497Z,22.10
2023-04-30T12:12:29.699Z,21.40
2023-04-30T12:14:59.495Z,21.00
2023-04-30T12:17:35.659Z,20.50
2023-04-30T12:20:05.038Z,19.70
2023-04-30T12:22:33.454Z,19.40
2023-04-30T12:25:02.316Z,19.70
2023-04-30T12:27:31.879Z,19.30
2023-04-30T12:30:08.077Z,19.50
2023-04-30T12:32:44.201Z,19.80
2023-04-30T12:35:16.803Z,20.00
2023-04-30T12:37:46.565Z,20.60
2023-04-30T12:40:15.718Z,20.90
2023-04-30T12:42:44.717Z,22.10
2023-04-30T12:45:14.945Z,23.60
2023-04-30T12:47:44.484Z,24.50
2023-04-30T12:50:13.370Z,24.30
2023-04-30T12:52:43.162Z,24.70
2023-04-30T12:55:20.822Z,24.30
2023-04-30T12:58:09.189Z,24.00
2023-04-30T13:00:49.693Z,23.90
2023-04-30T13:03:21.815Z,23.30
2023-04-30T13:05:52.600Z,23.40
2023-04-30T13:08:22.080Z,24.00
2023-04-30T13:10:50.433Z,24.00
2023-04-30T13:13:21.206Z,23.40
2023-04-30T13:15:50.713Z,23.00
2023-04-30T13:18:18.792Z,23.90
2023-04-30T13:20:46.845Z,24.00
2023-04-30T13:23:15.157Z,23.90
2023-04-30T13:25:43.627Z,23.40
2023-04-30T13:28:11.754Z,23.10
2023-04-30T13:30:40.948Z,22.70
2023-04-30T13:33:10.368Z,23.30
2023-04-30T13:35:38.497Z,24.40
2023-04-30T13:38:07.479Z,24.10
2023-04-30T13:40:35.616Z,23.80
2023-04-30T13:43:04.234Z,23.40
2023-04-30T13:45:32.315Z,23.20
2023-04-30T13:48:00.404Z,23.00
2023-04-30T13:50:30.375Z,23.10
2023-04-30T13:52:59.336Z,22.50
2023-04-30T13:55:27.554Z,22.20
2023-04-30T13:57:55.628Z,22.10
2023-04-30T14:00:23.775Z,22.50
2023-04-30T14:02:51.907Z,22.10
2023-04-30T14:05:20.020Z,21.40
2023-04-30T14:07:49.385Z,21.20
2023-04-30T14:10:17.649Z,20.90
2023-04-30T14:12:45.652Z,21.50
2023-04-30T14:15:13.704Z,21.20
2023-04-30T14:17:41.755Z,20.90
2023-04-30T14:20:11.955Z,20.90
2023-04-30T14:22:40.252Z,20.80
2023-04-30T14:25:11.917Z,20.20
2023-04-30T14:27:41.335Z,19.50
2023-04-30T14:30:10.491Z,19.10
2023-04-30T14:32:38.688Z,19.20
2023-04-30T14:35:09.644Z,19.20
2023-04-30T14:37:37.701Z,19.20
2023-04-30T14:40:08.195Z,19.40
2023-04-30T14:42:37.598Z,19.90
2023-04-30T14:45:07.336Z,20.20
2023-04-30T14:47:35.413Z,20.10
2023-04-30T14:50:03.489Z,19.70
2023-04-30T14:52:31.465Z,19.50
2023-04-30T14:54:59.761Z,19.80
2023-04-30T14:57:28.964Z,20.10
2023-04-30T15:00:00.631Z,20.10
2023-04-30T15:02:28.717Z,20.20
2023-04-30T15:04:56.825Z,20.70
2023-04-30T15:07:24.918Z,21.10
2023-04-30T15:09:53.907Z,20.80
2023-04-30T15:12:22.369Z,21.30
2023-04-30T15:14:50.494Z,21.80
2023-04-30T15:17:20.114Z,21.60
2023-04-30T15:19:48.151Z,22.30
2023-04-30T15:22:16.995Z,22.50
2023-04-30T15:24:45.158Z,22.20
2023-04-30T15:27:13.468Z,20.90
2023-04-30T15:29:41.463Z,20.30
2023-04-30T15:32:09.567Z,19.70
2023-04-30T15:34:38.996Z,19.50
2023-04-30T15:37:07.203Z,19.80
2023-04-30T15:39:35.705Z,20.00
2023-04-30T15:42:04.246Z,20.30
2023-04-30T15:44:32.389Z,20.40
2023-04-30T15:47:00.959Z,19.90
2023-04-30T15:49:29.256Z,19.40
2023-04-30T15:51:58.635Z,19.20
2023-04-30T15:54:26.769Z,19.40
2023-04-30T15:56:54.787Z,19.40
2023-04-30T15:59:23.199Z,19.50
2023-04-30T16:01:51.286Z,19.60
2023-04-30T16:04:21.053Z,19.40
2023-04-30T16:06:49.492Z,19.50
2023-04-30T16:09:20.404Z,19.50
2023-04-30T16:11:49.215Z,19.50
2023-04-30T16:14:17.274Z,19.60
2023-04-30T16:16:45.507Z,19.60
2023-04-30T16:19:14.002Z,19.60
2023-04-30T16:21:42.321Z,19.60
2023-04-30T16:24:11.066Z,19.60
2023-04-30T16:26:40.459Z,19.30
2023-04-30T16:29:09.091Z,19.30
2023-04-30T16:31:37.205Z,19.00
2023-04-30T16:34:05.300Z,18.90
2023-04-30T16:36:33.637Z,19.00
2023-04-30T16:39:01.632Z,18.90
2023-04-30T16:41:29.686Z,19.00
2023-04-30T16:43:59.319Z,19.00
2023-04-30T16:46:28.001Z,18.90
2023-04-30T16:48:56.214Z,18.90
2023-04-30T16:51:24.336Z,18.80
2023-04-30T16:53:52.382Z,18.80
2023-04-30T16:56:21.405Z,18.90
2023-04-30T16:58:49.457Z,18.90
2023-04-30T17:01:19.197Z,18.80
2023-04-30T17:03:47.479Z,18.60
2023-04-30T17:06:15.652Z,18.50
2023-04-30T17:08:43.795Z,18.40
2023-04-30T17:11:12.272Z,18.40
2023-04-30T17:13:40.286Z,18.40
2023-04-30T17:16:08.449Z,18.30
2023-04-30T17:18:37.781Z,18.30
2023-04-30T17:21:05.857Z,18.20
2023-04-30T17:23:33.962Z,18.10
2023-04-30T17:26:03.840Z,18.00
2023-04-30T17:28:32.686Z,18.00
2023-04-30T17:31:03.707Z,17.80
2023-04-30T17:33:31.722Z,17.70
2023-04-30T17:36:01.378Z,17.60
2023-04-30T17:38:29.423Z,17.40
2023-04-30T17:40:57.992Z,17.30
2023-04-30T17:43:26.140Z,17.20
2023-04-30T17:45:56.144Z,17.10
2023-04-30T17:48:24.223Z,17.00
2023-04-30T17:50:52.453Z,16.90
2023-04-30T17:53:21.888Z,16.70
2023-04-30T17:55:49.883Z,16.60
2023-04-30T17:58:17.882Z,16.50
2023-04-30T18:00:46.299Z,16.40
2023-04-30T18:03:14.448Z,16.40
2023-04-30T18:05:42.557Z,16.20
2023-04-30T18:08:10.578Z,16.10
2023-04-30T18:10:39.937Z,16.00
2023-04-30T18:13:07.998Z,16.00
2023-04-30T18:15:36.282Z,15.90
2023-04-30T18:18:04.559Z,15.70
2023-04-30T18:20:32.761Z,15.50
2023-04-30T18:23:00.821Z,15.30
2023-04-30T18:25:28.853Z,15.10
2023-04-30T18:27:59.658Z,15.00
2023-04-30T18:30:28.034Z,14.80
2023-04-30T18:32:56.241Z,14.60
2023-04-30T18:35:24.718Z,14.30
2023-04-30T18:37:52.733Z,14.10
2023-04-30T18:40:21.412Z,13.80
2023-04-30T18:42:49.440Z,13.60
2023-04-30T18:45:19.620Z,13.40
2023-04-30T18:47:47.680Z,13.20
2023-04-30T18:50:17.913Z,13.00
2023-04-30T18:52:46.147Z,12.80
2023-04-30T18:55:14.436Z,12.60
2023-04-30T18:57:43.302Z,12.50
2023-04-30T19:00:14.198Z,12.40
2023-04-30T19:02:44.186Z,12.40
2023-04-30T19:05:12.690Z,12.30
2023-04-30T19:07:40.939Z,12.20
2023-04-30T19:10:09.900Z,12.20
2023-04-30T19:12:38.008Z,12.00
2023-04-30T19:15:08.120Z,12.00
2023-04-30T19:17:36.499Z,12.00
2023-04-30T19:20:07.225Z,11.90
2023-04-30T19:22:35.901Z,11.90
2023-04-30T19:25:04.039Z,11.80
2023-04-30T19:27:32.266Z,11.70
2023-04-30T19:30:00.338Z,11.70
2023-04-30T19:32:28.713Z,11.70
2023-04-30T19:34:56.773Z,11.60
2023-04-30T19:37:26.821Z,11.60
2023-04-30T19:39:55.112Z,11.40
2023-04-30T19:42:25.761Z,11.20
2023-04-30T19:44:54.220Z,11.10
2023-04-30T19:47:24.086Z,11.00
2023-04-30T19:49:53.430Z,10.80
2023-04-30T19:52:21.974Z,10.80
2023-04-30T19:54:51.419Z,10.60
2023-04-30T19:57:19.592Z,10.50
2023-04-30T19:59:47.713Z,10.40
2023-04-30T20:02:15.904Z,10.50
2023-04-30T20:04:44.048Z,10.40
2023-04-30T20:07:12.205Z,10.20
2023-04-30T20:09:40.882Z,10.10
2023-04-30T20:12:10.278Z,10.00
2023-04-30T20:14:38.302Z,9.90
2023-04-30T20:17:06.706Z,9.90
2023-04-30T20:19:34.739Z,9.80
2023-04-30T20:22:03.770Z,9.70
2023-04-30T20:24:32.060Z,9.60
2023-04-30T20:27:00.196Z,9.60
2023-04-30T20:29:29.857Z,9.50
2023-04-30T20:31:58.373Z,9.50
2023-04-30T20:34:26.502Z,9.50
2023-04-30T20:36:55.194Z,9.50
2023-04-30T20:39:24.294Z,9.50
2023-04-30T20:41:53.343Z,9.50
2023-04-30T20:44:21.457Z,9.60
2023-04-30T20:46:50.895Z,9.50
2023-04-30T20:49:19.405Z,9.40
2023-04-30T20:51:47.474Z,9.40
2023-04-30T20:54:15.622Z,9.40
2023-04-30T20:56:45.019Z,9.30
2023-04-30T20:59:13.159Z,9.30
2023-04-30T21:01:41.719Z,9.20
2023-04-30T21:04:11.555Z,9.10
2023-04-30T21:06:40.537Z,8.90
2023-04-30T21:09:08.702Z,8.70
2023-04-30T21:11:36.829Z,8.70
2023-04-30T21:14:04.998Z,8.60
2023-04-30T21:16:33.179Z,8.70
2023-04-30T21:19:01.716Z,8.70
2023-04-30T21:21:31.175Z,8.80
2023-04-30T21:24:01.021Z,8.90
2023-04-30T21:26:29.337Z,9.00
2023-04-30T21:28:57.450Z,9.00
2023-04-30T21:31:25.865Z,9.10
2023-04-30T21:33:54.035Z,9.10
2023-04-30T21:36:22.574Z,9.10
2023-04-30T21:38:52.050Z,9.10
2023-04-30T21:41:21.663Z,9.10
2023-04-30T21:43:49.811Z,9.00
2023-04-30T21:46:18.057Z,9.00
2023-04-30T21:48:47.227Z,8.80
2023-04-30T21:51:17.054Z,8.80
2023-04-30T21:53:46.412Z,8.70
2023-04-30T21:56:16.388Z,8.60
2023-04-30T21:58:44.428Z,8.50
2023-04-30T22:01:13.339Z,8.40
2023-04-30T22:03:44.780Z,8.40
2023-04-30T22:06:13.104Z,8.30
2023-04-30T22:08:41.559Z,8.20
2023-04-30T22:11:09.839Z,8.30
2023-04-30T22:13:39.373Z,8.20
2023-04-30T22:16:08.545Z,8.10
2023-04-30T22:18:36.838Z,8.00
2023-04-30T22:21:05.183Z,8.00
2023-04-30T22:23:33.395Z,7.90
2023-04-30T22:26:01.900Z,7.80
2023-04-30T22:28:30.161Z,7.80
2023-04-30T22:31:03.219Z,7.70
2023-04-30T22:33:35.863Z,7.60
2023-04-30T22:36:06.274Z,7.70
2023-04-30T22:38:35.298Z,7.70
2023-04-30T22:41:04.873Z,7.60
2023-04-30T22:43:33.429Z,7.70
2023-04-30T22:46:03.397Z,7.70
2023-04-30T22:48:31.881Z,7.70
2023-04-30T22:51:00.109Z,7.70
2023-04-30T22:53:29.443Z,7.60
2023-04-30T22:55:57.722Z,7.60
2023-04-30T22:58:25.829Z,7.70
2023-04-30T23:00:54.158Z,7.50
2023-04-30T23:03:23.681Z,7.60
2023-04-30T23:05:52.288Z,7.60
2023-04-30T23:08:20.458Z,7.70
2023-04-30T23:10:49.012Z,7.80
2023-04-30T23:13:18.332Z,7.90
2023-04-30T23:15:46.656Z,7.80
2023-04-30T23:18:14.843Z,7.60
2023-04-30T23:20:44.499Z,7.60
2023-04-30T23:23:12.603Z,7.60
2023-04-30T23:25:40.818Z,7.60
2023-04-30T23:28:09.151Z,7.60
2023-04-30T23:30:39.991Z,7.50
2023-04-30T23:33:08.249Z,7.40
2023-04-30T23:35:36.912Z,7.40
2023-04-30T23:38:06.521Z,7.40
2023-04-30T23:40:35.255Z,7.40
2023-04-30T23:43:03.745Z,7.40
2023-04-30T23:45:32.097Z,7.30
2023-04-30T23:48:00.542Z,7.30
2023-04-30T23:50:28.784Z,7.30
2023-04-30T23:52:58.052Z,7.40
2023-04-30T23:55:27.530Z,7.50
2023-04-30T23:57:55.668Z,7.60
